Time;durP1;ratioP1;P1;durP2;ratioP2;P2;SDS_P1;SDS_P2;PMS_P1;PMS_P2;Temp;Humidity;BMP_temperature;BMP_pressure;BME280_temperature;BME280_humidity;BME280_pressure;Samples;Min_cycle;Max_cycle;Signal;HPM_P1;HPM_P2
2021/09/21 00:01:07;;;;;;;9.63;8.63;;;15.70;99.90;;;;;;5029362;28;20258;-51
2021/09/21 00:03:33;;;;;;;8.73;7.93;;;15.60;99.90;;;;;;5031460;28;20265;-52
2021/09/21 00:06:00;;;;;;;9.77;8.45;;;15.80;99.90;;;;;;5029302;28;20175;-51
2021/09/21 00:08:27;;;;;;;9.50;8.60;;;15.80;99.90;;;;;;5028122;28;20722;-51
2021/09/21 00:10:54;;;;;;;10.68;9.55;;;15.70;99.90;;;;;;5030989;28;20269;-51
2021/09/21 00:13:19;;;;;;;9.13;8.23;;;16.00;99.90;;;;;;5031530;28;20175;-51
2021/09/21 00:15:45;;;;;;;8.53;7.63;;;15.80;99.90;;;;;;5039724;28;20174;-51
2021/09/21 00:18:11;;;;;;;8.87;8.00;;;15.60;99.90;;;;;;5033552;28;20507;-50
2021/09/21 00:20:36;;;;;;;9.80;8.80;;;15.80;99.90;;;;;;5031400;28;20458;-50
2021/09/21 00:23:02;;;;;;;9.87;8.93;;;15.60;99.90;;;;;;5030756;28;20201;-50
2021/09/21 00:25:28;;;;;;;9.47;8.67;;;15.60;99.90;;;;;;5029053;28;20197;-51
2021/09/21 00:27:53;;;;;;;10.10;8.90;;;14.90;99.90;;;;;;5023908;28;20263;-51
2021/09/21 00:30:20;;;;;;;9.77;8.63;;;15.70;99.90;;;;;;5030669;28;20222;-50
2021/09/21 00:32:49;;;;;;;9.57;8.68;;;15.60;99.90;;;;;;5036020;28;20518;-50
2021/09/21 00:35:15;;;;;;;9.35;8.35;;;15.30;99.90;;;;;;5039473;28;20281;-50
2021/09/21 00:37:40;;;;;;;10.75;9.07;;;15.40;99.90;;;;;;5032381;28;20248;-50
2021/09/21 00:40:07;;;;;;;10.30;9.30;;;15.60;99.90;;;;;;5040936;28;20206;-50
2021/09/21 00:42:32;;;;;;;9.85;8.93;;;15.50;99.90;;;;;;5036137;28;20190;-50
2021/09/21 00:45:02;;;;;;;9.57;8.67;;;15.70;99.90;;;;;;5033615;28;20208;-50
2021/09/21 00:47:28;;;;;;;9.88;8.90;;;15.60;99.90;;;;;;5037968;28;20293;-50
2021/09/21 00:49:54;;;;;;;9.90;9.00;;;15.60;99.90;;;;;;5032673;28;20261;-50
2021/09/21 00:52:19;;;;;;;10.35;9.40;;;15.50;99.90;;;;;;5030308;28;20182;-50
2021/09/21 00:54:46;;;;;;;10.40;9.40;;;15.20;99.90;;;;;;5036882;28;20178;-50
2021/09/21 00:57:12;;;;;;;9.18;8.13;;;15.20;99.90;;;;;;5042001;28;20283;-50
2021/09/21 00:59:38;;;;;;;11.47;10.00;;;15.10;99.90;;;;;;5035961;28;20221;-50
2021/09/21 01:02:03;;;;;;;9.30;8.40;;;15.30;99.90;;;;;;5037908;28;20268;-49
2021/09/21 01:04:31;;;;;;;10.07;9.00;;;15.30;99.90;;;;;;5034179;28;20659;-50
2021/09/21 01:06:56;;;;;;;10.10;9.10;;;15.50;99.90;;;;;;5032609;28;20245;-50
2021/09/21 01:09:27;;;;;;;9.60;8.60;;;15.30;99.90;;;;;;5030583;28;20213;-50
2021/09/21 01:11:54;;;;;;;10.18;9.18;;;15.40;99.90;;;;;;5032935;28;20186;-50
2021/09/21 01:14:21;;;;;;;10.32;9.07;;;15.40;99.90;;;;;;5031143;28;20189;-50
2021/09/21 01:16:47;;;;;;;10.40;9.30;;;15.60;99.90;;;;;;5032306;28;20247;-50
2021/09/21 01:19:15;;;;;;;9.63;8.65;;;15.20;99.90;;;;;;5032236;28;20214;-50
2021/09/21 01:21:42;;;;;;;9.75;8.75;;;15.20;99.90;;;;;;5030637;28;20217;-50
2021/09/21 01:24:09;;;;;;;9.32;8.15;;;15.30;99.90;;;;;;5037725;28;20213;-50
2021/09/21 01:26:34;;;;;;;9.95;8.95;;;15.20;99.90;;;;;;5037389;28;20209;-50
2021/09/21 01:29:00;;;;;;;9.87;8.87;;;15.20;99.90;;;;;;5027389;28;20206;-50
2021/09/21 01:31:26;;;;;;;9.87;8.40;;;15.40;99.90;;;;;;5032495;28;20194;-50
2021/09/21 01:33:53;;;;;;;10.43;9.37;;;15.30;99.90;;;;;;5028533;28;20586;-50
2021/09/21 01:36:21;;;;;;;9.38;8.48;;;15.30;99.90;;;;;;5033851;28;20197;-50
2021/09/21 01:38:48;;;;;;;9.38;8.45;;;15.30;99.90;;;;;;5031673;28;20271;-50
2021/09/21 01:41:13;;;;;;;10.18;9.18;;;15.30;99.90;;;;;;5032204;28;20205;-51
2021/09/21 01:43:42;;;;;;;9.97;9.07;;;15.10;99.90;;;;;;5025235;28;20175;-50
2021/09/21 01:46:12;;;;;;;10.60;9.50;;;15.10;99.90;;;;;;5038988;28;20193;-50
2021/09/21 01:48:38;;;;;;;10.43;9.43;;;15.10;99.90;;;;;;5031741;28;20202;-50
2021/09/21 01:51:06;;;;;;;11.83;9.60;;;14.90;99.90;;;;;;5026389;28;20190;-50
2021/09/21 01:58:51;;;;;;;9.20;8.30;;;15.10;99.90;;;;;;5033666;28;20366;-50
2021/09/21 02:01:26;;;;;;;11.00;10.00;;;15.30;99.90;;;;;;5035483;28;20659;-50
2021/09/21 02:03:54;;;;;;;9.82;8.82;;;15.10;99.90;;;;;;5041103;28;20185;-50
2021/09/21 02:06:23;;;;;;;9.50;8.57;;;15.00;99.90;;;;;;5031614;28;20209;-50
2021/09/21 02:08:48;;;;;;;9.20;8.30;;;14.80;99.90;;;;;;5023731;28;20627;-49
2021/09/21 02:11:14;;;;;;;9.23;8.27;;;14.70;99.90;;;;;;5036145;28;20232;-49
2021/09/21 02:13:40;;;;;;;9.83;8.90;;;14.80;99.90;;;;;;5028084;28;20182;-50
2021/09/21 02:16:06;;;;;;;10.43;8.30;;;15.00;99.90;;;;;;5032093;28;20467;-50
2021/09/21 02:18:32;;;;;;;9.55;8.60;;;15.10;99.90;;;;;;5031283;28;20229;-50
2021/09/21 02:20:58;;;;;;;10.43;8.93;;;15.00;99.90;;;;;;5030903;28;20186;-50
2021/09/21 02:23:23;;;;;;;9.87;8.87;;;14.80;99.90;;;;;;5023136;28;20190;-50
2021/09/21 02:25:49;;;;;;;10.20;8.87;;;14.80;99.90;;;;;;5030442;28;20182;-49
2021/09/21 02:28:15;;;;;;;9.90;9.00;;;15.00;99.90;;;;;;5032072;28;21010;-51
2021/09/21 02:30:40;;;;;;;9.70;8.80;;;15.00;99.90;;;;;;5024802;28;20475;-50
2021/09/21 02:33:07;;;;;;;9.27;8.30;;;14.70;99.90;;;;;;5037159;28;20194;-50
2021/09/21 02:35:33;;;;;;;9.02;8.13;;;15.00;99.90;;;;;;5031164;28;20202;-50
2021/09/21 02:37:58;;;;;;;9.45;8.55;;;14.80;99.90;;;;;;5023534;28;20629;-50
2021/09/21 02:40:26;;;;;;;9.40;8.50;;;15.00;99.90;;;;;;5029850;28;20305;-50
2021/09/21 02:42:52;;;;;;;9.07;8.18;;;15.00;99.90;;;;;;5024268;28;20190;-49
2021/09/21 02:45:18;;;;;;;8.98;8.00;;;14.90;99.90;;;;;;5029069;28;20209;-50
2021/09/21 02:47:43;;;;;;;9.83;8.93;;;15.00;99.90;;;;;;5036953;28;20206;-49
2021/09/21 02:50:10;;;;;;;9.83;8.93;;;15.10;99.90;;;;;;5030601;28;20195;-50
2021/09/21 02:52:37;;;;;;;9.32;8.52;;;15.20;99.90;;;;;;5025672;28;20538;-50
2021/09/21 02:55:04;;;;;;;10.15;9.15;;;15.00;99.90;;;;;;5024716;28;20186;-49
2021/09/21 02:57:32;;;;;;;9.40;8.52;;;15.00;99.90;;;;;;5029770;28;20264;-49
2021/09/21 02:59:58;;;;;;;9.82;8.55;;;15.10;99.90;;;;;;5024837;28;20265;-50
2021/09/21 03:02:24;;;;;;;9.35;8.20;;;14.80;99.90;;;;;;5042692;28;20178;-50
2021/09/21 03:04:54;;;;;;;13.73;12.32;;;14.90;99.90;;;;;;5031127;28;20610;-50
2021/09/21 03:07:29;;;;;;;10.13;9.07;;;15.20;99.90;;;;;;5017819;28;20222;-49
2021/09/21 03:10:08;;;;;;;9.93;8.77;;;15.20;99.90;;;;;;5031739;28;20525;-50
2021/09/21 03:17:45;;;;;;;9.63;8.68;;;15.00;99.90;;;;;;5031316;28;20678;-50
2021/09/21 03:20:10;;;;;;;9.52;8.52;;;15.20;99.90;;;;;;5035326;28;20185;-49
2021/09/21 03:22:36;;;;;;;11.03;9.60;;;15.00;99.90;;;;;;5028435;28;20260;-50
2021/09/21 03:25:02;;;;;;;9.57;8.57;;;15.10;99.90;;;;;;5036931;28;20448;-50
2021/09/21 03:27:28;;;;;;;10.02;9.10;;;15.20;99.90;;;;;;5030521;28;20218;-50
2021/09/21 03:29:53;;;;;;;9.87;8.90;;;15.00;99.90;;;;;;5024604;28;20558;-49
2021/09/21 03:32:19;;;;;;;9.80;8.90;;;15.00;99.90;;;;;;5031020;28;20228;-49
2021/09/21 03:34:45;;;;;;;9.70;8.80;;;15.10;99.90;;;;;;5026775;28;20194;-50
2021/09/21 03:37:11;;;;;;;9.20;8.40;;;15.00;99.90;;;;;;5024600;28;20277;-50
2021/09/21 03:39:40;;;;;;;9.20;8.30;;;14.60;99.90;;;;;;5029210;28;20198;-50
2021/09/21 03:42:05;;;;;;;12.23;8.40;;;15.00;99.90;;;;;;5030182;28;20193;-49
2021/09/21 03:44:31;;;;;;;9.87;8.87;;;15.10;99.90;;;;;;5024740;28;20189;-50
2021/09/21 03:46:57;;;;;;;11.53;9.23;;;14.90;99.90;;;;;;5026494;28;20234;-50
2021/09/21 03:49:24;;;;;;;12.25;10.50;;;15.10;99.90;;;;;;5029670;28;20636;-49
2021/09/21 03:51:49;;;;;;;10.57;9.57;;;15.10;99.90;;;;;;5029862;28;20197;-50
2021/09/21 03:54:15;;;;;;;10.73;9.23;;;15.00;99.90;;;;;;5028989;28;20193;-50
2021/09/21 03:56:41;;;;;;;11.75;9.82;;;14.90;99.90;;;;;;5029608;28;20281;-50
2021/09/21 03:59:08;;;;;;;10.65;9.60;;;14.80;99.90;;;;;;5023592;28;20252;-50
2021/09/21 04:01:34;;;;;;;10.27;9.27;;;14.90;99.90;;;;;;5029577;28;20182;-50
2021/09/21 04:04:00;;;;;;;10.60;9.60;;;14.70;99.90;;;;;;5030086;28;20212;-50
2021/09/21 04:06:26;;;;;;;14.73;13.32;;;14.80;99.90;;;;;;5027189;28;20585;-50
2021/09/21 04:08:53;;;;;;;11.37;9.50;;;14.80;99.90;;;;;;5028288;28;20202;-50
2021/09/21 04:11:20;;;;;;;10.57;9.52;;;15.10;99.90;;;;;;5041455;28;20487;-49
2021/09/21 04:13:45;;;;;;;10.32;9.38;;;14.80;99.90;;;;;;5042029;28;20182;-49
2021/09/21 04:16:11;;;;;;;10.37;9.03;;;15.00;99.90;;;;;;5016430;28;20647;-50
2021/09/21 04:18:37;;;;;;;10.03;9.07;;;14.90;99.90;;;;;;5022897;28;20194;-50
2021/09/21 04:21:03;;;;;;;9.60;8.70;;;14.60;99.90;;;;;;5026387;28;20714;-50
2021/09/21 04:23:29;;;;;;;9.90;8.82;;;14.80;99.90;;;;;;5023523;28;20185;-50
2021/09/21 04:25:54;;;;;;;10.30;9.30;;;14.60;99.90;;;;;;5029537;28;20174;-50
2021/09/21 04:28:21;;;;;;;11.20;10.13;;;14.30;99.90;;;;;;5028188;28;20472;-51
2021/09/21 04:30:53;;;;;;;9.35;8.40;;;14.90;99.90;;;;;;5033423;28;20308;-51
2021/09/21 04:33:20;;;;;;;9.68;8.70;;;14.80;99.90;;;;;;5021382;28;20182;-50
2021/09/21 04:35:46;;;;;;;10.48;9.45;;;14.70;99.90;;;;;;5028799;28;20193;-50
2021/09/21 04:38:12;;;;;;;10.27;9.15;;;14.40;99.90;;;;;;5028112;28;20300;-50
2021/09/21 04:40:39;;;;;;;12.43;9.80;;;14.40;99.90;;;;;;5028843;28;20233;-49
2021/09/21 04:43:05;;;;;;;12.07;10.30;;;14.30;99.90;;;;;;5030692;28;20201;-50
2021/09/21 04:45:33;;;;;;;10.43;9.27;;;14.20;99.90;;;;;;5030536;28;20667;-50
2021/09/21 04:47:59;;;;;;;10.00;9.05;;;14.50;99.90;;;;;;5028890;28;20726;-50
2021/09/21 04:50:24;;;;;;;9.80;8.80;;;14.20;99.90;;;;;;5026337;28;20269;-50
2021/09/21 04:52:50;;;;;;;10.53;9.37;;;14.40;99.90;;;;;;5033987;28;20364;-49
2021/09/21 04:55:16;;;;;;;11.10;9.50;;;14.40;99.90;;;;;;5029591;28;20179;-49
2021/09/21 04:57:41;;;;;;;10.00;9.10;;;14.30;99.90;;;;;;5027899;28;20566;-51
2021/09/21 05:00:08;;;;;;;10.63;9.53;;;14.30;99.90;;;;;;5033329;28;20243;-50
2021/09/21 05:02:36;;;;;;;9.77;8.80;;;14.30;99.90;;;;;;5033438;28;20197;-50
2021/09/21 05:05:01;;;;;;;10.40;9.13;;;14.30;99.90;;;;;;5033164;28;20232;-50
2021/09/21 05:07:27;;;;;;;9.93;8.93;;;14.30;99.90;;;;;;5031816;28;20218;-50
2021/09/21 05:09:52;;;;;;;11.07;9.20;;;14.30;99.90;;;;;;5031373;28;20539;-50
2021/09/21 05:12:19;;;;;;;11.23;10.20;;;14.10;99.90;;;;;;5035223;28;20219;-50
2021/09/21 05:14:45;;;;;;;10.20;9.20;;;14.00;99.90;;;;;;5028690;28;20674;-50
2021/09/21 05:17:11;;;;;;;12.13;10.43;;;14.30;99.90;;;;;;5029109;28;20194;-48
2021/09/21 05:19:36;;;;;;;9.23;8.43;;;14.10;99.90;;;;;;5025062;28;20659;-50
2021/09/21 05:22:02;;;;;;;10.23;8.90;;;14.00;99.90;;;;;;5025446;28;20209;-49
2021/09/21 05:24:28;;;;;;;10.97;8.47;;;14.20;99.90;;;;;;5026983;28;20220;-49
2021/09/21 05:26:53;;;;;;;11.53;10.50;;;14.30;99.90;;;;;;5025622;28;21001;-49
2021/09/21 05:29:19;;;;;;;10.67;9.57;;;14.30;99.90;;;;;;5027883;28;20197;-49
2021/09/21 05:31:44;;;;;;;11.63;10.40;;;14.20;99.90;;;;;;5027578;28;20187;-49
2021/09/21 05:34:10;;;;;;;11.13;10.03;;;14.20;99.90;;;;;;5026494;28;20347;-49
2021/09/21 05:36:36;;;;;;;10.33;9.27;;;14.00;99.90;;;;;;5023860;28;20251;-49
2021/09/21 05:39:02;;;;;;;10.37;9.37;;;14.00;99.90;;;;;;5033812;28;20210;-49
2021/09/21 05:41:27;;;;;;;12.90;10.57;;;14.20;99.90;;;;;;5032091;28;20203;-49
2021/09/21 05:43:53;;;;;;;9.00;8.20;;;14.10;99.90;;;;;;5025319;28;20883;-49
2021/09/21 05:46:18;;;;;;;10.77;9.67;;;13.90;99.90;;;;;;5026953;28;20236;-49
2021/09/21 05:48:44;;;;;;;10.77;9.67;;;14.00;99.90;;;;;;5024956;28;20225;-50
2021/09/21 05:51:10;;;;;;;10.40;9.30;;;14.10;99.90;;;;;;5025530;28;20186;-49
2021/09/21 05:53:35;;;;;;;9.90;8.93;;;14.30;99.90;;;;;;5028305;28;20624;-49
2021/09/21 05:56:01;;;;;;;12.30;9.90;;;14.10;99.90;;;;;;5026799;28;20205;-49
2021/09/21 05:58:26;;;;;;;10.20;9.20;;;14.20;99.90;;;;;;5024626;28;20225;-49
2021/09/21 06:00:52;;;;;;;10.07;9.07;;;14.00;99.90;;;;;;5024881;28;20208;-51
2021/09/21 06:03:18;;;;;;;10.07;9.07;;;14.40;99.90;;;;;;5027128;28;20277;-51
2021/09/21 06:05:43;;;;;;;11.17;8.60;;;14.30;99.90;;;;;;5027945;28;20652;-50
2021/09/21 06:08:09;;;;;;;11.63;8.73;;;14.30;99.90;;;;;;5021092;28;20363;-49
2021/09/21 06:10:35;;;;;;;12.10;10.90;;;14.20;99.90;;;;;;5030362;28;20182;-51
2021/09/21 06:13:01;;;;;;;10.02;9.07;;;14.20;99.90;;;;;;5023488;28;20185;-49
2021/09/21 06:15:27;;;;;;;11.35;10.05;;;14.10;99.90;;;;;;5027472;28;20202;-49
2021/09/21 06:17:53;;;;;;;11.20;10.10;;;14.10;99.90;;;;;;5024018;28;20268;-49
2021/09/21 06:20:18;;;;;;;10.67;9.60;;;13.90;99.90;;;;;;5028906;28;20598;-50
2021/09/21 06:22:46;;;;;;;10.93;9.83;;;14.00;99.90;;;;;;5025454;28;20437;-51
2021/09/21 06:25:13;;;;;;;11.75;9.60;;;14.00;99.90;;;;;;5027828;28;20186;-50
2021/09/21 06:27:39;;;;;;;10.90;9.80;;;14.30;99.90;;;;;;5030339;28;20206;-49
2021/09/21 06:30:08;;;;;;;10.48;8.32;;;14.30;99.90;;;;;;5021564;28;20205;-50
2021/09/21 06:32:35;;;;;;;9.95;8.98;;;14.40;99.90;;;;;;5017355;28;20187;-49
2021/09/21 06:35:00;;;;;;;10.88;9.75;;;14.50;99.90;;;;;;5036532;28;20198;-50
2021/09/21 06:37:26;;;;;;;10.10;9.20;;;14.70;99.90;;;;;;5035909;28;20255;-50
2021/09/21 06:39:51;;;;;;;9.80;8.80;;;14.50;99.90;;;;;;5027714;28;20182;-49
2021/09/21 06:42:17;;;;;;;12.03;10.73;;;14.80;99.90;;;;;;5019027;28;20233;-50
2021/09/21 06:44:43;;;;;;;9.20;8.30;;;14.70;99.90;;;;;;5030727;28;20612;-49
2021/09/21 06:47:08;;;;;;;11.90;9.00;;;15.00;99.90;;;;;;5025605;28;20627;-50
2021/09/21 06:49:34;;;;;;;10.17;9.20;;;15.10;99.90;;;;;;5033000;28;20190;-50
2021/09/21 06:52:00;;;;;;;9.53;8.63;;;14.90;99.90;;;;;;5029634;28;20240;-50
2021/09/21 06:54:26;;;;;;;10.50;9.50;;;15.10;99.90;;;;;;5025813;28;20183;-50
2021/09/21 06:56:51;;;;;;;10.33;9.23;;;15.00;99.90;;;;;;5033525;28;20453;-50
2021/09/21 06:59:17;;;;;;;10.23;9.33;;;15.10;99.90;;;;;;5028801;28;20487;-49
2021/09/21 07:01:43;;;;;;;10.03;9.07;;;15.90;99.90;;;;;;5021848;28;20534;-49
2021/09/21 07:04:08;;;;;;;10.20;9.20;;;15.50;99.50;;;;;;5030401;28;20305;-50
2021/09/21 07:06:34;;;;;;;9.93;8.93;;;16.30;99.40;;;;;;5022913;28;20241;-50
2021/09/21 07:09:00;;;;;;;9.00;8.13;;;16.50;98.10;;;;;;5031467;28;20678;-51
2021/09/21 07:11:27;;;;;;;9.90;8.98;;;17.10;98.00;;;;;;5029342;28;20213;-50
2021/09/21 07:13:53;;;;;;;11.63;8.60;;;18.10;96.40;;;;;;5031140;28;20189;-51
2021/09/21 07:16:18;;;;;;;8.35;7.57;;;19.20;93.60;;;;;;5029863;28;20617;-50
2021/09/21 07:18:44;;;;;;;9.07;8.17;;;19.70;91.30;;;;;;5040424;28;20292;-51
2021/09/21 07:21:10;;;;;;;8.57;7.77;;;20.50;89.20;;;;;;5028685;28;20175;-51
2021/09/21 07:23:36;;;;;;;9.13;8.20;;;20.70;87.80;;;;;;5025776;28;20530;-51
2021/09/21 07:26:03;;;;;;;9.00;8.20;;;20.80;85.20;;;;;;5033071;28;20678;-51
2021/09/21 07:28:28;;;;;;;8.55;7.75;;;21.40;83.90;;;;;;5026704;28;20297;-54
2021/09/21 07:30:54;;;;;;;10.43;7.83;;;21.70;81.60;;;;;;5029447;28;20337;-50
2021/09/21 07:33:20;;;;;;;8.37;7.57;;;21.80;80.00;;;;;;5029468;28;20178;-51
2021/09/21 07:35:45;;;;;;;8.90;7.70;;;21.30;80.30;;;;;;5030670;28;20561;-51
2021/09/21 07:38:11;;;;;;;9.87;8.23;;;20.60;82.90;;;;;;5033569;28;20213;-50
2021/09/21 07:40:37;;;;;;;8.70;7.60;;;20.00;83.00;;;;;;5030466;28;20182;-50
2021/09/21 07:43:05;;;;;;;8.40;7.60;;;19.90;85.20;;;;;;5030581;28;20190;-50
2021/09/21 07:45:32;;;;;;;10.55;8.75;;;19.60;85.10;;;;;;5033573;28;20211;-50
2021/09/21 07:47:57;;;;;;;8.48;7.78;;;19.20;87.10;;;;;;5032214;28;20226;-50
2021/09/21 07:50:25;;;;;;;10.87;7.70;;;19.20;86.70;;;;;;5030606;28;20547;-50
2021/09/21 07:52:51;;;;;;;8.05;7.25;;;19.40;86.90;;;;;;5034303;28;20529;-50
2021/09/21 07:55:17;;;;;;;8.10;7.37;;;19.20;85.60;;;;;;5026596;28;20273;-51
2021/09/21 07:57:43;;;;;;;8.13;7.13;;;19.30;84.90;;;;;;5028822;28;20824;-50
2021/09/21 08:00:11;;;;;;;8.18;7.47;;;19.30;83.70;;;;;;5024899;28;20193;-50
2021/09/21 08:02:36;;;;;;;8.43;7.53;;;19.40;83.90;;;;;;5028853;28;20548;-51
2021/09/21 08:05:02;;;;;;;7.90;7.10;;;19.50;82.80;;;;;;5030544;28;20269;-51
2021/09/21 08:07:29;;;;;;;7.33;6.73;;;19.60;82.60;;;;;;5031252;28;20660;-50
2021/09/21 08:09:55;;;;;;;11.02;7.57;;;20.10;82.30;;;;;;5029581;28;20237;-48
2021/09/21 08:12:21;;;;;;;7.63;6.85;;;20.00;80.20;;;;;;5029288;28;20220;-50
2021/09/21 08:14:51;;;;;;;8.60;7.90;;;19.60;79.60;;;;;;5029353;28;20190;-50
2021/09/21 08:17:17;;;;;;;7.72;7.10;;;20.00;81.20;;;;;;5036360;28;20282;-50
2021/09/21 08:19:43;;;;;;;8.40;7.60;;;20.30;80.80;;;;;;5033139;28;20210;-50
2021/09/21 08:22:08;;;;;;;7.95;7.32;;;20.10;79.20;;;;;;5024782;28;20224;-50
2021/09/21 08:24:34;;;;;;;9.40;7.83;;;19.50;80.60;;;;;;5029336;28;20181;-50
2021/09/21 08:27:00;;;;;;;8.00;7.30;;;19.70;81.00;;;;;;5032073;28;20210;-50
2021/09/21 08:29:26;;;;;;;7.75;7.07;;;19.70;79.80;;;;;;5027631;28;20347;-50
2021/09/21 08:31:52;;;;;;;8.13;7.43;;;19.60;79.40;;;;;;5028572;28;20175;-50
2021/09/21 08:34:17;;;;;;;8.37;7.57;;;19.50;79.70;;;;;;5029990;28;20448;-50
2021/09/21 08:36:43;;;;;;;7.37;6.70;;;19.00;78.50;;;;;;5031671;28;21008;-50
2021/09/21 08:39:09;;;;;;;8.17;7.40;;;19.00;79.70;;;;;;5034451;28;20213;-50
2021/09/21 08:41:35;;;;;;;8.77;7.87;;;19.00;79.30;;;;;;5025665;28;20187;-50
2021/09/21 08:44:03;;;;;;;7.88;7.18;;;18.50;80.80;;;;;;5028623;28;20276;-49
2021/09/21 08:46:29;;;;;;;8.55;6.78;;;18.60;80.70;;;;;;5039964;28;20200;-50
2021/09/21 08:48:55;;;;;;;8.13;7.32;;;18.50;77.30;;;;;;5035346;28;20303;-49
2021/09/21 08:51:21;;;;;;;7.27;6.67;;;18.30;78.10;;;;;;5032438;28;20277;-50
2021/09/21 08:53:47;;;;;;;6.57;6.07;;;18.20;79.90;;;;;;5037098;28;20571;-50
2021/09/21 08:56:14;;;;;;;6.53;5.90;;;18.20;77.30;;;;;;5031893;28;20451;-50
2021/09/21 08:58:39;;;;;;;7.13;6.53;;;18.20;78.90;;;;;;5029720;28;20213;-51
2021/09/21 09:01:10;;;;;;;6.90;6.30;;;17.70;77.60;;;;;;5036511;28;20240;-51
2021/09/21 09:03:36;;;;;;;7.65;6.68;;;17.40;77.60;;;;;;5031728;28;20178;-51
2021/09/21 09:06:06;;;;;;;8.53;7.80;;;17.60;79.20;;;;;;5032247;28;20284;-51
2021/09/21 09:08:34;;;;;;;7.03;6.40;;;17.30;79.70;;;;;;5027620;28;20360;-50
2021/09/21 09:11:18;;;;;;;7.10;6.32;;;17.80;80.10;;;;;;5031615;28;20194;-50
2021/09/21 09:13:45;;;;;;;8.60;7.80;;;18.40;78.30;;;;;;5028597;28;20170;-50
2021/09/21 09:16:16;;;;;;;6.10;5.60;;;18.90;76.90;;;;;;5025556;28;20182;-50
2021/09/21 09:18:43;;;;;;;8.95;8.15;;;19.40;74.80;;;;;;5028008;28;20241;-50
2021/09/21 09:21:10;;;;;;;8.00;7.18;;;19.50;73.20;;;;;;5030049;28;20182;-49
2021/09/21 09:23:45;;;;;;;7.82;7.15;;;19.20;73.50;;;;;;5031100;28;20655;-50
2021/09/21 09:26:11;;;;;;;7.90;7.03;;;19.20;75.50;;;;;;5038637;28;20201;-50
2021/09/21 09:28:36;;;;;;;8.70;7.90;;;19.10;75.40;;;;;;5037171;28;20221;-50
2021/09/21 09:31:02;;;;;;;6.90;6.20;;;19.30;74.70;;;;;;5034663;28;20268;-50
2021/09/21 09:33:32;;;;;;;7.40;6.70;;;18.90;75.70;;;;;;5041184;28;20316;-50
2021/09/21 09:36:00;;;;;;;7.57;6.97;;;19.10;75.90;;;;;;5029003;28;20194;-49
2021/09/21 09:38:26;;;;;;;10.30;6.97;;;19.20;74.50;;;;;;5036140;28;20232;-50
2021/09/21 09:40:56;;;;;;;7.70;7.10;;;18.90;74.40;;;;;;5034192;28;20185;-50
2021/09/21 09:43:27;;;;;;;6.82;6.22;;;19.30;74.50;;;;;;5029166;28;20182;-50
2021/09/21 09:45:59;;;;;;;7.22;6.63;;;19.70;74.30;;;;;;5031467;28;20188;-50
2021/09/21 09:48:26;;;;;;;8.98;7.10;;;19.40;74.20;;;;;;5031576;28;20504;-50
2021/09/21 09:50:54;;;;;;;6.78;5.93;;;19.60;74.70;;;;;;5031037;28;20711;-50
2021/09/21 09:53:27;;;;;;;7.30;6.50;;;20.70;71.50;;;;;;5028490;28;20191;-50
2021/09/21 09:55:55;;;;;;;6.80;6.20;;;22.20;68.80;;;;;;5024644;28;20930;-50
2021/09/21 09:58:22;;;;;;;8.07;7.27;;;23.60;64.80;;;;;;5026292;28;20476;-50
2021/09/21 10:00:52;;;;;;;9.40;8.60;;;24.70;60.60;;;;;;5033814;28;20954;-50
2021/09/21 10:03:18;;;;;;;7.23;6.53;;;25.00;58.40;;;;;;5026190;28;20433;-51
2021/09/21 10:05:43;;;;;;;7.37;6.77;;;25.20;58.40;;;;;;5031177;28;20440;-50
2021/09/21 10:08:10;;;;;;;8.20;7.40;;;26.00;56.70;;;;;;5031343;28;20325;-50
2021/09/21 10:10:39;;;;;;;6.67;6.17;;;25.30;55.30;;;;;;5035376;28;20182;-50
2021/09/21 10:13:14;;;;;;;6.90;6.40;;;25.40;55.50;;;;;;5029289;28;20502;-50
2021/09/21 10:15:41;;;;;;;6.77;6.17;;;25.60;54.60;;;;;;5031128;28;20455;-50
2021/09/21 10:18:18;;;;;;;8.97;8.27;;;24.80;54.80;;;;;;5032286;28;20464;-51
2021/09/21 10:20:54;;;;;;;8.53;7.87;;;24.80;55.70;;;;;;5037101;28;20437;-50
2021/09/21 10:23:20;;;;;;;9.53;8.70;;;25.00;56.10;;;;;;5028389;28;20453;-50
2021/09/21 10:25:45;;;;;;;9.03;6.70;;;24.20;56.10;;;;;;5030553;28;20522;-49
2021/09/21 10:28:13;;;;;;;8.33;7.63;;;23.00;58.10;;;;;;5027858;28;20222;-50
2021/09/21 10:30:39;;;;;;;7.93;7.33;;;22.30;59.30;;;;;;5030044;28;20694;-50
2021/09/21 10:33:05;;;;;;;9.00;8.20;;;21.90;61.10;;;;;;5030477;28;20476;-51
2021/09/21 10:35:32;;;;;;;8.20;7.50;;;21.60;62.00;;;;;;5030590;28;20201;-51
2021/09/21 10:38:19;;;;;;;10.07;9.18;;;21.20;62.80;;;;;;5034044;28;20471;-51
2021/09/21 10:40:50;;;;;;;7.10;6.50;;;20.70;64.90;;;;;;5041019;28;20190;-51
2021/09/21 10:43:34;;;;;;;11.25;10.13;;;20.10;67.40;;;;;;5029357;28;20177;-51
2021/09/21 10:46:06;;;;;;;7.75;7.05;;;20.30;67.50;;;;;;5030829;28;20624;-51
2021/09/21 10:48:37;;;;;;;6.90;6.30;;;20.40;67.20;;;;;;5030457;28;20248;-50
2021/09/21 10:51:05;;;;;;;7.05;6.45;;;20.90;66.30;;;;;;5028431;28;20670;-51
2021/09/21 10:53:31;;;;;;;5.72;5.32;;;20.50;65.20;;;;;;5027395;28;20598;-49
2021/09/21 10:56:03;;;;;;;6.37;5.87;;;20.40;66.40;;;;;;5048300;28;20197;-49
2021/09/21 10:58:30;;;;;;;7.07;6.47;;;20.40;65.50;;;;;;5022317;28;20507;-49
2021/09/21 11:00:56;;;;;;;7.32;6.63;;;20.60;65.20;;;;;;5030254;28;20190;-49
2021/09/21 11:03:24;;;;;;;7.00;6.35;;;20.90;64.20;;;;;;5031060;28;20209;-50
2021/09/21 11:05:50;;;;;;;6.82;6.32;;;20.80;64.30;;;;;;5030333;28;20186;-50
2021/09/21 11:08:18;;;;;;;7.60;7.00;;;20.60;65.40;;;;;;5026283;28;20691;-50
2021/09/21 11:10:47;;;;;;;6.85;6.25;;;20.40;65.90;;;;;;5027936;28;20205;-49
2021/09/21 11:13:17;;;;;;;7.53;6.93;;;20.10;66.00;;;;;;5018659;28;20692;-50
2021/09/21 11:15:45;;;;;;;7.18;6.55;;;20.00;65.60;;;;;;5037003;28;20546;-50
2021/09/21 11:18:13;;;;;;;7.13;6.43;;;20.30;67.00;;;;;;5029241;28;20244;-50
2021/09/21 11:20:52;;;;;;;10.10;7.95;;;20.20;66.70;;;;;;5027049;28;20302;-50
2021/09/21 11:23:20;;;;;;;9.70;7.65;;;20.30;66.80;;;;;;5028719;28;20182;-50
2021/09/21 11:25:47;;;;;;;6.82;6.28;;;20.30;66.80;;;;;;5019838;28;20186;-50
2021/09/21 11:28:14;;;;;;;7.47;6.78;;;20.10;67.20;;;;;;5024899;28;20234;-48
2021/09/21 11:30:40;;;;;;;8.32;7.53;;;19.60;67.20;;;;;;5022811;28;20229;-49
2021/09/21 11:33:18;;;;;;;7.40;6.70;;;19.80;69.40;;;;;;5027052;28;20186;-50
2021/09/21 11:35:49;;;;;;;7.93;7.22;;;19.70;68.60;;;;;;5025059;28;20479;-52
2021/09/21 11:38:16;;;;;;;7.05;6.43;;;20.00;68.50;;;;;;5025286;28;20229;-49
2021/09/21 11:40:43;;;;;;;7.45;6.85;;;19.80;68.90;;;;;;5020519;28;20627;-49
2021/09/21 11:43:10;;;;;;;6.72;6.18;;;20.00;68.20;;;;;;5019622;28;20179;-49
2021/09/21 11:45:36;;;;;;;8.77;7.88;;;20.10;67.40;;;;;;5022875;28;20260;-49
2021/09/21 11:48:03;;;;;;;7.43;6.72;;;19.70;68.90;;;;;;5023221;28;20309;-50
2021/09/21 11:50:31;;;;;;;7.13;6.53;;;19.90;69.00;;;;;;5019124;28;20205;-49
2021/09/21 11:53:02;;;;;;;8.15;7.35;;;20.40;68.70;;;;;;5023728;28;20285;-49
2021/09/21 11:55:31;;;;;;;7.82;7.13;;;20.50;68.00;;;;;;5024695;28;20247;-49
2021/09/21 11:57:57;;;;;;;7.68;6.97;;;20.50;67.60;;;;;;5021081;28;20228;-50
2021/09/21 12:00:34;;;;;;;7.63;6.93;;;20.20;67.80;;;;;;5022595;28;20257;-50
2021/09/21 12:03:03;;;;;;;7.72;7.03;;;19.90;68.80;;;;;;5034017;28;20185;-50
2021/09/21 12:05:30;;;;;;;8.60;7.80;;;19.90;68.80;;;;;;5021300;28;20677;-51
2021/09/21 12:07:59;;;;;;;9.65;7.22;;;19.90;70.60;;;;;;5020883;28;20210;-50
2021/09/21 12:10:27;;;;;;;7.40;6.70;;;20.10;69.30;;;;;;5023809;28;21342;-50
2021/09/21 12:13:16;;;;;;;8.40;7.70;;;20.00;69.20;;;;;;5029006;28;20289;-49
2021/09/21 12:15:47;;;;;;;7.68;6.95;;;19.70;70.70;;;;;;5037244;28;20193;-50
2021/09/21 12:18:14;;;;;;;7.97;7.30;;;19.70;71.20;;;;;;5034616;28;20241;-50
2021/09/21 12:20:41;;;;;;;8.65;7.95;;;19.60;71.10;;;;;;5032387;28;20798;-50
2021/09/21 12:23:09;;;;;;;7.97;7.07;;;19.40;74.30;;;;;;5026385;28;20198;-50
2021/09/21 12:25:35;;;;;;;8.18;7.47;;;19.20;72.90;;;;;;5022598;28;20560;-51
2021/09/21 12:28:04;;;;;;;8.45;7.65;;;19.30;71.20;;;;;;5025504;28;20761;-51
2021/09/21 12:30:32;;;;;;;9.65;8.75;;;19.40;70.70;;;;;;5031799;28;20503;-51
2021/09/21 12:33:05;;;;;;;8.95;8.15;;;19.50;71.40;;;;;;5030316;28;20277;-50
2021/09/21 12:35:33;;;;;;;8.05;7.35;;;19.60;71.40;;;;;;5030873;28;20643;-51
2021/09/21 12:38:05;;;;;;;7.55;6.85;;;19.70;71.50;;;;;;5029457;28;20574;-51
2021/09/21 12:40:31;;;;;;;7.82;7.07;;;19.70;71.00;;;;;;5033156;28;20196;-52
2021/09/21 12:43:01;;;;;;;8.57;7.78;;;19.70;70.80;;;;;;5028935;28;20216;-51
2021/09/21 12:45:27;;;;;;;8.00;7.22;;;19.80;70.90;;;;;;5032461;28;20272;-51
2021/09/21 12:47:53;;;;;;;8.07;6.65;;;19.80;71.50;;;;;;5030963;28;20218;-50
2021/09/21 12:50:23;;;;;;;8.40;7.50;;;19.90;71.70;;;;;;5035463;28;20186;-49
2021/09/21 12:52:54;;;;;;;7.50;6.90;;;19.70;71.50;;;;;;5030887;28;20186;-50